Offenbach, Germany

11:30 AM CEST on August 27, 2014 (GMT +0200)
Frankfurt INTERNET AG www.inet.de | Change Station
CLOSE
Current Station
Personal Weather Station
Location: Frankfurt, HESSEN
Elevation: 348 ft
Nearby Weather Stations

Elev 348 ft 50.11 °N, 8.67 °E | Updated 6 seconds ago

Scattered Clouds
Scattered Clouds
64.2 °F
Feels Like 64.2 °F
N
6.0
Wind Variable Wind from NE
Gusts 8.3 mph

Today
High -- | Low -- °F
--% Chance of Precip.
Yesterday
High -- | Low -- °F
Precip. -- in
6:32 AM 8:20 PM
Waxing Crescent, 3% visible
Pressure 30.01 in
Visibility 6.2 miles
Clouds Scattered Clouds 1700 ft
Dew Point 55 °F
Humidity 71%
Rainfall 0.13 in
Snow Depth Not available.
UV 1.0 out of 12
Pollen Not available.
Air Quality Not available.
Flu Activity Not available.
METAR EDDF 270920Z 05006KT 9999 SCT017 16/12 Q1016 NOSIG

More Conditions Fewer Conditions

Pressure 30.01 in
Visibility 6.2 miles
Clouds Scattered Clouds 1700 ft
Dew Point 55 °F
Humidity 71%
Rainfall 0.13 in
Snow Depth Not available.
UV 1.0 out of 12
Pollen Not available.
Air Quality Not available.
Flu Activity Not available.
METAR EDDF 270920Z 05006KT 9999 SCT017 16/12 Q1016 NOSIG

More Conditions Fewer Conditions

10-Day Weather Forecast

Almanac

Astronomy

Aug. 27, 2014 Rise Set
Actual Time 6:32 AM CEST 8:20 PM CEST
Civil Twilight 5:57 AM CEST 8:54 PM CEST
Nautical Twilight 5:15 AM CEST 9:36 PM CEST
Astronomical Twilight 4:27 AM CEST 10:23 PM CEST
Moon 8:27 AM CEST 8:46 PM CEST
Length of Visible Light 14h 56m
Length of Day
13h 48m
Tomorrow will be 3m 35s shorter.
Waxing Crescent, 3% of the Moon is Illuminated
Today
Waxing Crescent
Sep 2
First Quarter
Sep 8
Full
Sep 15
Last Quarter
Sep 24
New

Yesterday's Extremes

Country Highs Country Lows

Community

WunderPhotos

Upload Photos

1,747,661 photos uploaded!

Nearby

Snow Depth

Not available.

Earthquake Activity

City Distance Mag. Time & Date
No recent earthquake activity has been reported nearby.
Minimum magnitude displayed is 2.5.

Coastal Water Temperatures

Place Temperature
No Stations Reporting

Nearby Weather Stations